sensor_id;sensor_type;location;lat;lon;timestamp;pressure;altitude;pressure_sealevel;temperature;humidity
40592;BME280;26301;42.832;23.918;2023-12-20T00:01:37;93340.41;;;0.07;92.94
40592;BME280;26301;42.832;23.918;2023-12-20T00:04:03;93373.16;;;0.33;92.87
40592;BME280;26301;42.832;23.918;2023-12-20T00:06:30;93370.66;;;0.25;93.05
40592;BME280;26301;42.832;23.918;2023-12-20T00:08:56;93339.63;;;0.07;92.77
40592;BME280;26301;42.832;23.918;2023-12-20T00:11:24;93369.53;;;0.28;92.76
40592;BME280;26301;42.832;23.918;2023-12-20T00:13:50;93361.72;;;0.29;92.72
40592;BME280;26301;42.832;23.918;2023-12-20T00:16:16;93338.63;;;0.16;92.02
40592;BME280;26301;42.832;23.918;2023-12-20T00:18:42;93353.66;;;0.26;92.40
40592;BME280;26301;42.832;23.918;2023-12-20T00:21:08;93348.72;;;0.24;92.79
40592;BME280;26301;42.832;23.918;2023-12-20T00:23:34;93321.53;;;0.10;92.40
40592;BME280;26301;42.832;23.918;2023-12-20T00:26:00;93346.72;;;0.19;92.63
40592;BME280;26301;42.832;23.918;2023-12-20T00:28:26;93351.13;;;0.26;92.08
40592;BME280;26301;42.832;23.918;2023-12-20T00:30:52;93350.28;;;0.33;92.20
40592;BME280;26301;42.832;23.918;2023-12-20T00:33:18;93344.72;;;0.30;92.57
40592;BME280;26301;42.832;23.918;2023-12-20T00:35:44;93292.53;;;-0.04;93.38
40592;BME280;26301;42.832;23.918;2023-12-20T00:38:10;93291.06;;;0.02;92.25
40592;BME280;26301;42.832;23.918;2023-12-20T00:40:37;93323.47;;;0.31;92.37
40592;BME280;26301;42.832;23.918;2023-12-20T00:43:03;93320.75;;;0.32;91.99
40592;BME280;26301;42.832;23.918;2023-12-20T00:45:30;93311.88;;;0.28;91.31
40592;BME280;26301;42.832;23.918;2023-12-20T00:47:55;93295.72;;;0.21;92.26
40592;BME280;26301;42.832;23.918;2023-12-20T00:50:21;93320.28;;;0.29;93.39
40592;BME280;26301;42.832;23.918;2023-12-20T00:52:48;93313.03;;;0.17;93.48
40592;BME280;26301;42.832;23.918;2023-12-20T00:55:14;93311.50;;;0.08;94.22
40592;BME280;26301;42.832;23.918;2023-12-20T00:57:40;93307.09;;;0.02;94.34
40592;BME280;26301;42.832;23.918;2023-12-20T01:00:06;93313.59;;;0.05;94.33
40592;BME280;26301;42.832;23.918;2023-12-20T01:02:35;93293.81;;;-0.08;94.23
40592;BME280;26301;42.832;23.918;2023-12-20T01:05:01;93302.06;;;-0.06;95.16
40592;BME280;26301;42.832;23.918;2023-12-20T01:07:28;93289.66;;;-0.01;94.52
40592;BME280;26301;42.832;23.918;2023-12-20T01:09:54;93281.38;;;0.05;93.63
40592;BME280;26301;42.832;23.918;2023-12-20T01:12:21;93296.06;;;0.18;93.71
40592;BME280;26301;42.832;23.918;2023-12-20T01:14:47;93295.72;;;0.21;93.68
40592;BME280;26301;42.832;23.918;2023-12-20T01:17:13;93264.56;;;0.04;92.81
40592;BME280;26301;42.832;23.918;2023-12-20T01:19:40;93282.03;;;0.30;92.21
40592;BME280;26301;42.832;23.918;2023-12-20T01:22:05;93262.88;;;0.19;92.78
40592;BME280;26301;42.832;23.918;2023-12-20T01:24:32;93219.97;;;0.02;92.06
40592;BME280;26301;42.832;23.918;2023-12-20T01:26:58;93274.78;;;0.42;91.77
40592;BME280;26301;42.832;23.918;2023-12-20T01:29:24;93257.47;;;0.45;91.22
40592;BME280;26301;42.832;23.918;2023-12-20T01:31:50;93254.91;;;0.45;89.91
40592;BME280;26301;42.832;23.918;2023-12-20T01:34:16;93265.72;;;0.62;89.65
40592;BME280;26301;42.832;23.918;2023-12-20T01:36:42;93218.47;;;0.53;87.48
40592;BME280;26301;42.832;23.918;2023-12-20T01:39:08;93251.31;;;0.93;86.99
40592;BME280;26301;42.832;23.918;2023-12-20T01:41:35;93245.00;;;0.88;88.35
40592;BME280;26301;42.832;23.918;2023-12-20T01:44:01;93222.44;;;0.71;88.23
40592;BME280;26301;42.832;23.918;2023-12-20T01:46:27;93247.19;;;0.77;88.58
40592;BME280;26301;42.832;23.918;2023-12-20T01:48:54;93229.19;;;0.63;89.09
40592;BME280;26301;42.832;23.918;2023-12-20T01:51:20;93239.63;;;0.68;88.81
40592;BME280;26301;42.832;23.918;2023-12-20T01:53:47;93225.81;;;0.48;90.31
40592;BME280;26301;42.832;23.918;2023-12-20T01:56:14;93217.53;;;0.31;91.29
40592;BME280;26301;42.832;23.918;2023-12-20T01:58:44;93182.31;;;0.05;92.03
40592;BME280;26301;42.832;23.918;2023-12-20T02:01:11;93218.50;;;0.30;92.96
40592;BME280;26301;42.832;23.918;2023-12-20T02:03:41;93199.16;;;0.06;94.09
40592;BME280;26301;42.832;23.918;2023-12-20T02:06:09;93213.53;;;0.14;94.46
40592;BME280;26301;42.832;23.918;2023-12-20T02:08:36;93193.78;;;0.01;94.16
40592;BME280;26301;42.832;23.918;2023-12-20T02:11:03;93207.22;;;0.10;94.26
40592;BME280;26301;42.832;23.918;2023-12-20T02:13:29;93205.75;;;0.15;94.13
40592;BME280;26301;42.832;23.918;2023-12-20T02:15:56;93205.47;;;0.10;93.73
40592;BME280;26301;42.832;23.918;2023-12-20T02:18:22;93203.72;;;0.11;94.01
40592;BME280;26301;42.832;23.918;2023-12-20T02:20:49;93143.63;;;-0.20;94.72
40592;BME280;26301;42.832;23.918;2023-12-20T02:23:15;93175.97;;;0.09;94.95
40592;BME280;26301;42.832;23.918;2023-12-20T02:25:41;93116.72;;;-0.29;93.66
40592;BME280;26301;42.832;23.918;2023-12-20T02:28:07;93186.03;;;0.17;93.87
40592;BME280;26301;42.832;23.918;2023-12-20T02:30:33;93156.97;;;-0.03;94.80
40592;BME280;26301;42.832;23.918;2023-12-20T02:33:00;93177.41;;;0.04;93.77
40592;BME280;26301;42.832;23.918;2023-12-20T02:35:26;93188.56;;;0.17;93.64
40592;BME280;26301;42.832;23.918;2023-12-20T02:37:52;93169.75;;;0.27;92.22
40592;BME280;26301;42.832;23.918;2023-12-20T02:40:18;93132.56;;;-0.04;92.14
40592;BME280;26301;42.832;23.918;2023-12-20T02:42:44;93135.31;;;0.09;92.27
40592;BME280;26301;42.832;23.918;2023-12-20T02:45:11;93154.44;;;0.20;93.68
40592;BME280;26301;42.832;23.918;2023-12-20T02:47:39;93127.75;;;0.01;93.61
40592;BME280;26301;42.832;23.918;2023-12-20T02:50:05;93134.13;;;-0.03;94.46
40592;BME280;26301;42.832;23.918;2023-12-20T02:52:31;93116.38;;;-0.26;95.25
40592;BME280;26301;42.832;23.918;2023-12-20T02:54:57;93151.63;;;-0.08;95.90
40592;BME280;26301;42.832;23.918;2023-12-20T02:57:23;93153.84;;;-0.05;95.90
40592;BME280;26301;42.832;23.918;2023-12-20T02:59:49;93155.41;;;-0.04;95.95
40592;BME280;26301;42.832;23.918;2023-12-20T03:02:16;93104.97;;;-0.30;95.26
40592;BME280;26301;42.832;23.918;2023-12-20T03:04:45;93150.09;;;0.06;94.96
40592;BME280;26301;42.832;23.918;2023-12-20T03:07:11;93149.69;;;0.17;93.53
40592;BME280;26301;42.832;23.918;2023-12-20T03:09:38;93104.19;;;-0.08;93.15
40592;BME280;26301;42.832;23.918;2023-12-20T03:12:04;93132.53;;;0.19;92.61
40592;BME280;26301;42.832;23.918;2023-12-20T03:14:30;93143.56;;;0.26;92.62
40592;BME280;26301;42.832;23.918;2023-12-20T03:16:56;93097.63;;;-0.02;92.25
40592;BME280;26301;42.832;23.918;2023-12-20T03:19:22;93100.16;;;-0.02;92.74
40592;BME280;26301;42.832;23.918;2023-12-20T03:21:48;93129.91;;;0.12;92.67
40592;BME280;26301;42.832;23.918;2023-12-20T03:24:14;93130.78;;;0.19;92.32
40592;BME280;26301;42.832;23.918;2023-12-20T03:26:40;93122.19;;;0.20;91.88
40592;BME280;26301;42.832;23.918;2023-12-20T03:29:06;93091.22;;;0.02;92.22
40592;BME280;26301;42.832;23.918;2023-12-20T03:31:32;93119.84;;;0.19;92.54
40592;BME280;26301;42.832;23.918;2023-12-20T03:33:58;93123.78;;;0.21;92.10
40592;BME280;26301;42.832;23.918;2023-12-20T03:36:24;93111.59;;;0.17;92.37
40592;BME280;26301;42.832;23.918;2023-12-20T03:38:50;93100.88;;;0.07;92.46
40592;BME280;26301;42.832;23.918;2023-12-20T03:41:16;93060.47;;;-0.18;92.13
40592;BME280;26301;42.832;23.918;2023-12-20T03:43:42;93088.69;;;0.02;92.54
40592;BME280;26301;42.832;23.918;2023-12-20T03:46:08;93101.84;;;0.06;91.79
40592;BME280;26301;42.832;23.918;2023-12-20T03:48:35;93097.91;;;0.03;92.02
40592;BME280;26301;42.832;23.918;2023-12-20T03:51:01;93103.00;;;0.03;93.11
40592;BME280;26301;42.832;23.918;2023-12-20T03:53:27;93114.44;;;-0.01;94.06
40592;BME280;26301;42.832;23.918;2023-12-20T03:55:53;93116.09;;;-0.08;94.49
40592;BME280;26301;42.832;23.918;2023-12-20T03:58:20;93072.06;;;-0.38;95.08
40592;BME280;26301;42.832;23.918;2023-12-20T04:00:46;93083.28;;;-0.33;94.29
40592;BME280;26301;42.832;23.918;2023-12-20T04:03:12;93112.13;;;-0.11;96.04
40592;BME280;26301;42.832;23.918;2023-12-20T04:05:41;93082.66;;;-0.35;96.11
40592;BME280;26301;42.832;23.918;2023-12-20T04:08:09;93100.53;;;-0.28;96.16
40592;BME280;26301;42.832;23.918;2023-12-20T04:10:35;93089.03;;;-0.39;97.53
40592;BME280;26301;42.832;23.918;2023-12-20T04:13:03;93090.06;;;-0.48;98.25
40592;BME280;26301;42.832;23.918;2023-12-20T04:15:29;93084.34;;;-0.50;98.34
40592;BME280;26301;42.832;23.918;2023-12-20T04:17:54;93083.16;;;-0.62;99.21
40592;BME280;26301;42.832;23.918;2023-12-20T04:20:21;93087.38;;;-0.55;98.78
40592;BME280;26301;42.832;23.918;2023-12-20T04:22:47;93063.03;;;-0.64;98.99
40592;BME280;26301;42.832;23.918;2023-12-20T04:25:13;93052.94;;;-0.72;98.16
40592;BME280;26301;42.832;23.918;2023-12-20T04:27:39;93074.97;;;-0.50;98.77
40592;BME280;26301;42.832;23.918;2023-12-20T04:30:05;93077.81;;;-0.44;98.64
40592;BME280;26301;42.832;23.918;2023-12-20T04:32:31;93080.16;;;-0.43;98.16
40592;BME280;26301;42.832;23.918;2023-12-20T04:34:57;93078.88;;;-0.39;97.98
40592;BME280;26301;42.832;23.918;2023-12-20T04:37:24;93081.63;;;-0.49;98.61
40592;BME280;26301;42.832;23.918;2023-12-20T04:39:50;93051.06;;;-0.55;97.66
40592;BME280;26301;42.832;23.918;2023-12-20T04:42:16;93035.41;;;-0.59;96.14
40592;BME280;26301;42.832;23.918;2023-12-20T04:44:42;93056.25;;;-0.49;98.18
40592;BME280;26301;42.832;23.918;2023-12-20T04:47:09;93029.25;;;-0.64;96.93
40592;BME280;26301;42.832;23.918;2023-12-20T04:49:35;93048.13;;;-0.44;96.12
40592;BME280;26301;42.832;23.918;2023-12-20T04:52:02;93065.59;;;-0.26;95.37
40592;BME280;26301;42.832;23.918;2023-12-20T04:54:28;93052.13;;;-0.27;94.95
40592;BME280;26301;42.832;23.918;2023-12-20T04:56:54;93019.91;;;-0.26;93.35
40592;BME280;26301;42.832;23.918;2023-12-20T04:59:21;93060.41;;;0.05;92.60
40592;BME280;26301;42.832;23.918;2023-12-20T05:01:47;93051.16;;;0.12;91.56
40592;BME280;26301;42.832;23.918;2023-12-20T05:04:13;93023.81;;;-0.01;91.89
40592;BME280;26301;42.832;23.918;2023-12-20T05:06:39;93041.16;;;0.26;91.20
40592;BME280;26301;42.832;23.918;2023-12-20T05:09:05;92995.53;;;0.03;90.71
40592;BME280;26301;42.832;23.918;2023-12-20T05:11:31;93009.91;;;0.25;90.39
40592;BME280;26301;42.832;23.918;2023-12-20T05:13:57;93034.41;;;0.48;90.23
40592;BME280;26301;42.832;23.918;2023-12-20T05:16:23;93036.38;;;0.31;90.37
40592;BME280;26301;42.832;23.918;2023-12-20T05:18:50;93012.00;;;0.07;91.05
40592;BME280;26301;42.832;23.918;2023-12-20T05:21:18;93029.88;;;0.28;91.08
40592;BME280;26301;42.832;23.918;2023-12-20T05:23:44;93024.16;;;0.11;91.85
40592;BME280;26301;42.832;23.918;2023-12-20T05:26:10;93003.47;;;-0.15;91.57
40592;BME280;26301;42.832;23.918;2023-12-20T05:28:36;93023.81;;;-0.01;92.33
40592;BME280;26301;42.832;23.918;2023-12-20T05:31:02;93002.69;;;-0.16;93.07
40592;BME280;26301;42.832;23.918;2023-12-20T05:33:28;92984.16;;;-0.39;93.73
40592;BME280;26301;42.832;23.918;2023-12-20T05:35:54;93013.97;;;-0.18;94.39
40592;BME280;26301;42.832;23.918;2023-12-20T05:38:20;92963.06;;;-0.55;95.13
40592;BME280;26301;42.832;23.918;2023-12-20T05:40:46;93004.66;;;-0.41;95.16
40592;BME280;26301;42.832;23.918;2023-12-20T05:43:13;93002.66;;;-0.31;94.26
40592;BME280;26301;42.832;23.918;2023-12-20T05:45:39;92963.84;;;-0.54;95.38
40592;BME280;26301;42.832;23.918;2023-12-20T05:48:05;93002.66;;;-0.31;95.48
40592;BME280;26301;42.832;23.918;2023-12-20T05:50:32;92996.16;;;-0.33;95.27
40592;BME280;26301;42.832;23.918;2023-12-20T05:52:57;93001.63;;;-0.21;94.97
40592;BME280;26301;42.832;23.918;2023-12-20T05:55:23;92997.31;;;-0.36;95.79
40592;BME280;26301;42.832;23.918;2023-12-20T05:57:50;92989.72;;;-0.36;95.46
40592;BME280;26301;42.832;23.918;2023-12-20T06:00:16;92995.38;;;-0.34;94.21
40592;BME280;26301;42.832;23.918;2023-12-20T06:02:43;92987.97;;;-0.35;93.74
40592;BME280;26301;42.832;23.918;2023-12-20T06:05:09;92997.66;;;-0.39;94.35
40592;BME280;26301;42.832;23.918;2023-12-20T06:07:35;92992.69;;;-0.32;95.13
40592;BME280;26301;42.832;23.918;2023-12-20T06:10:01;92990.84;;;-0.38;96.13
40592;BME280;26301;42.832;23.918;2023-12-20T06:12:27;92953.78;;;-0.62;96.34
40592;BME280;26301;42.832;23.918;2023-12-20T06:14:54;92978.47;;;-0.56;96.38
40592;BME280;26301;42.832;23.918;2023-12-20T06:17:23;92987.75;;;-0.49;97.13
40592;BME280;26301;42.832;23.918;2023-12-20T06:19:49;92942.34;;;-0.81;98.68
40592;BME280;26301;42.832;23.918;2023-12-20T06:22:17;92967.59;;;-0.65;98.76
40592;BME280;26301;42.832;23.918;2023-12-20T06:24:43;92988.22;;;-0.45;98.16
40592;BME280;26301;42.832;23.918;2023-12-20T06:27:09;92952.38;;;-0.65;98.05
40592;BME280;26301;42.832;23.918;2023-12-20T06:29:35;92993.47;;;-0.32;98.98
40592;BME280;26301;42.832;23.918;2023-12-20T06:32:01;92945.28;;;-0.55;97.93
40592;BME280;26301;42.832;23.918;2023-12-20T06:34:28;92980.09;;;-0.26;98.33
40592;BME280;26301;42.832;23.918;2023-12-20T06:36:54;92970.81;;;-0.18;98.49
40592;BME280;26301;42.832;23.918;2023-12-20T06:39:20;92938.50;;;-0.25;98.78
40592;BME280;26301;42.832;23.918;2023-12-20T06:41:46;92975.66;;;0.06;98.17
40592;BME280;26301;42.832;23.918;2023-12-20T06:44:12;92939.06;;;0.01;98.63
40592;BME280;26301;42.832;23.918;2023-12-20T06:46:38;92937.38;;;0.08;98.76
40592;BME280;26301;42.832;23.918;2023-12-20T06:49:04;92877.34;;;-0.15;98.40
40592;BME280;26301;42.832;23.918;2023-12-20T06:51:30;92938.97;;;0.45;97.92
40592;BME280;26301;42.832;23.918;2023-12-20T06:53:56;92958.88;;;0.56;97.33
40592;BME280;26301;42.832;23.918;2023-12-20T06:56:23;92961.94;;;0.66;97.57
40592;BME280;26301;42.832;23.918;2023-12-20T06:58:48;92942.72;;;0.64;97.55
40592;BME280;26301;42.832;23.918;2023-12-20T07:01:15;92925.63;;;0.73;97.55
40592;BME280;26301;42.832;23.918;2023-12-20T07:03:41;92943.91;;;1.04;97.97
40592;BME280;26301;42.832;23.918;2023-12-20T07:06:08;92949.28;;;1.16;96.25
40592;BME280;26301;42.832;23.918;2023-12-20T07:08:34;92943.06;;;1.19;97.21
40592;BME280;26301;42.832;23.918;2023-12-20T07:11:01;92926.56;;;1.36;96.46
40592;BME280;26301;42.832;23.918;2023-12-20T07:13:27;92936.81;;;1.43;96.51
40592;BME280;26301;42.832;23.918;2023-12-20T07:15:54;92943.94;;;1.54;96.46
40592;BME280;26301;42.832;23.918;2023-12-20T07:18:20;92931.38;;;1.52;95.89
40592;BME280;26301;42.832;23.918;2023-12-20T07:20:46;92934.94;;;1.58;95.56
40592;BME280;26301;42.832;23.918;2023-12-20T07:23:13;92912.41;;;1.55;96.16
40592;BME280;26301;42.832;23.918;2023-12-20T07:25:39;92926.72;;;1.84;94.88
40592;BME280;26301;42.832;23.918;2023-12-20T07:28:05;92921.38;;;1.79;94.65
40592;BME280;26301;42.832;23.918;2023-12-20T07:30:31;92918.72;;;1.94;94.02
40592;BME280;26301;42.832;23.918;2023-12-20T07:32:57;92828.78;;;1.52;93.59
40592;BME280;26301;42.832;23.918;2023-12-20T07:35:23;92916.13;;;2.28;93.17
40592;BME280;26301;42.832;23.918;2023-12-20T07:37:50;92908.34;;;2.43;93.75
40592;BME280;26301;42.832;23.918;2023-12-20T07:40:17;92914.09;;;2.59;92.58
40592;BME280;26301;42.832;23.918;2023-12-20T07:42:43;92890.75;;;2.55;93.12
40592;BME280;26301;42.832;23.918;2023-12-20T07:45:09;92894.13;;;2.69;94.39
40592;BME280;26301;42.832;23.918;2023-12-20T07:47:36;92859.19;;;2.69;92.86
40592;BME280;26301;42.832;23.918;2023-12-20T07:50:03;92890.41;;;2.91;91.80
40592;BME280;26301;42.832;23.918;2023-12-20T07:52:29;92909.13;;;3.25;92.43
40592;BME280;26301;42.832;23.918;2023-12-20T07:54:55;92909.09;;;3.52;91.76
40592;BME280;26301;42.832;23.918;2023-12-20T07:57:22;92899.66;;;3.72;92.73
40592;BME280;26301;42.832;23.918;2023-12-20T07:59:48;92878.47;;;3.65;92.76
40592;BME280;26301;42.832;23.918;2023-12-20T08:02:14;92881.78;;;3.72;90.78
40592;BME280;26301;42.832;23.918;2023-12-20T08:04:40;92877.00;;;3.96;91.50
40592;BME280;26301;42.832;23.918;2023-12-20T08:07:07;92874.00;;;4.12;87.92
40592;BME280;26301;42.832;23.918;2023-12-20T08:09:33;92876.94;;;4.22;88.08
40592;BME280;26301;42.832;23.918;2023-12-20T08:12:02;92884.72;;;4.41;89.70
40592;BME280;26301;42.832;23.918;2023-12-20T08:14:28;92869.38;;;4.41;85.27
40592;BME280;26301;42.832;23.918;2023-12-20T08:16:54;92883.84;;;4.60;85.69
40592;BME280;26301;42.832;23.918;2023-12-20T08:19:20;92866.94;;;4.59;86.85
40592;BME280;26301;42.832;23.918;2023-12-20T08:21:46;92874.94;;;4.76;83.42
40592;BME280;26301;42.832;23.918;2023-12-20T08:24:12;92882.72;;;4.88;82.81
40592;BME280;26301;42.832;23.918;2023-12-20T08:26:38;92866.38;;;4.89;85.11
40592;BME280;26301;42.832;23.918;2023-12-20T08:29:04;92854.16;;;4.91;82.81
40592;BME280;26301;42.832;23.918;2023-12-20T08:31:30;92849.00;;;4.97;82.19
40592;BME280;26301;42.832;23.918;2023-12-20T08:33:56;92846.97;;;5.06;82.88
40592;BME280;26301;42.832;23.918;2023-12-20T08:36:22;92854.88;;;5.30;82.81
40592;BME280;26301;42.832;23.918;2023-12-20T08:38:49;92838.97;;;5.46;84.24
40592;BME280;26301;42.832;23.918;2023-12-20T08:41:16;92848.03;;;5.67;87.20
40592;BME280;26301;42.832;23.918;2023-12-20T08:43:43;92863.22;;;5.87;82.27
40592;BME280;26301;42.832;23.918;2023-12-20T08:46:09;92855.06;;;5.97;83.65
40592;BME280;26301;42.832;23.918;2023-12-20T08:48:35;92850.56;;;6.10;84.01
40592;BME280;26301;42.832;23.918;2023-12-20T08:51:05;92842.75;;;6.24;83.91
40592;BME280;26301;42.832;23.918;2023-12-20T08:53:34;92813.56;;;6.36;79.01
40592;BME280;26301;42.832;23.918;2023-12-20T08:56:00;92823.53;;;6.75;76.79
40592;BME280;26301;42.832;23.918;2023-12-20T08:58:27;92831.50;;;6.97;80.58
40592;BME280;26301;42.832;23.918;2023-12-20T09:00:53;92829.31;;;7.24;69.86
40592;BME280;26301;42.832;23.918;2023-12-20T09:03:19;92797.84;;;7.40;68.97
40592;BME280;26301;42.832;23.918;2023-12-20T09:05:46;92797.81;;;7.64;71.40
40592;BME280;26301;42.832;23.918;2023-12-20T09:08:12;92818.69;;;8.02;65.74
40592;BME280;26301;42.832;23.918;2023-12-20T09:10:38;92803.75;;;8.28;57.73
40592;BME280;26301;42.832;23.918;2023-12-20T09:13:04;92794.97;;;8.53;55.18
40592;BME280;26301;42.832;23.918;2023-12-20T09:15:30;92755.31;;;8.54;55.41
40592;BME280;26301;42.832;23.918;2023-12-20T09:17:56;92759.59;;;8.77;54.12
40592;BME280;26301;42.832;23.918;2023-12-20T09:20:22;92786.50;;;8.86;57.66
40592;BME280;26301;42.832;23.918;2023-12-20T09:22:49;92772.09;;;8.85;64.25
40592;BME280;26301;42.832;23.918;2023-12-20T09:25:15;92753.56;;;8.71;59.75
40592;BME280;26301;42.832;23.918;2023-12-20T09:27:43;92734.28;;;8.57;57.28
40592;BME280;26301;42.832;23.918;2023-12-20T09:30:10;92771.53;;;8.83;57.49
40592;BME280;26301;42.832;23.918;2023-12-20T09:32:35;92761.91;;;8.78;60.24
40592;BME280;26301;42.832;23.918;2023-12-20T09:35:03;92729.53;;;8.49;61.09
40592;BME280;26301;42.832;23.918;2023-12-20T09:37:31;92725.63;;;8.34;61.73
40592;BME280;26301;42.832;23.918;2023-12-20T09:39:57;92743.63;;;8.46;62.20
40592;BME280;26301;42.832;23.918;2023-12-20T09:45:15;92746.59;;;8.26;65.52
40592;BME280;26301;42.832;23.918;2023-12-20T09:47:43;92666.31;;;7.55;64.76
40592;BME280;26301;42.832;23.918;2023-12-20T09:50:11;92721.44;;;7.88;65.53
40592;BME280;26301;42.832;23.918;2023-12-20T09:52:39;92737.31;;;7.85;66.58
40592;BME280;26301;42.832;23.918;2023-12-20T09:55:06;92726.59;;;7.76;67.48
40592;BME280;26301;42.832;23.918;2023-12-20T09:57:35;92723.81;;;7.77;69.77
40592;BME280;26301;42.832;23.918;2023-12-20T10:00:02;92689.81;;;7.47;66.67
40592;BME280;26301;42.832;23.918;2023-12-20T10:02:57;92731.44;;;7.61;68.86
40592;BME280;26301;42.832;23.918;2023-12-20T10:05:28;92696.63;;;7.41;68.93
40592;BME280;26301;42.832;23.918;2023-12-20T10:07:54;92698.09;;;7.37;70.52
40592;BME280;26301;42.832;23.918;2023-12-20T10:10:20;92720.84;;;7.45;72.54
40592;BME280;26301;42.832;23.918;2023-12-20T10:13:02;92716.59;;;7.51;70.55
40592;BME280;26301;42.832;23.918;2023-12-20T10:15:28;92713.44;;;7.61;69.52
40592;BME280;26301;42.832;23.918;2023-12-20T10:17:55;92698.91;;;7.66;67.80
40592;BME280;26301;42.832;23.918;2023-12-20T10:20:21;92706.81;;;7.88;61.30
40592;BME280;26301;42.832;23.918;2023-12-20T10:22:47;92678.41;;;7.83;66.52
40592;BME280;26301;42.832;23.918;2023-12-20T10:25:14;92699.84;;;8.17;62.89
40592;BME280;26301;42.832;23.918;2023-12-20T10:27:40;92679.88;;;8.08;55.82
40592;BME280;26301;42.832;23.918;2023-12-20T10:30:06;92693.16;;;8.45;50.27
40592;BME280;26301;42.832;23.918;2023-12-20T10:32:32;92677.09;;;8.72;50.34
40592;BME280;26301;42.832;23.918;2023-12-20T10:34:58;92664.13;;;8.83;55.71
40592;BME280;26301;42.832;23.918;2023-12-20T10:37:25;92666.16;;;8.98;54.84
40592;BME280;26301;42.832;23.918;2023-12-20T10:39:53;92651.66;;;8.92;56.94
40592;BME280;26301;42.832;23.918;2023-12-20T10:42:22;92667.88;;;9.09;54.33
40592;BME280;26301;42.832;23.918;2023-12-20T10:44:51;92617.47;;;8.97;46.80
40592;BME280;26301;42.832;23.918;2023-12-20T10:47:20;92642.06;;;9.48;43.67
40592;BME280;26301;42.832;23.918;2023-12-20T10:49:47;92649.59;;;9.99;42.98
40592;BME280;26301;42.832;23.918;2023-12-20T10:52:13;92639.28;;;10.26;42.68
40592;BME280;26301;42.832;23.918;2023-12-20T10:54:40;92641.53;;;10.49;42.72
40592;BME280;26301;42.832;23.918;2023-12-20T10:57:07;92618.13;;;10.56;43.53
40592;BME280;26301;42.832;23.918;2023-12-20T10:59:34;92640.41;;;10.67;41.85
40592;BME280;26301;42.832;23.918;2023-12-20T11:02:04;92647.75;;;10.86;44.83
40592;BME280;26301;42.832;23.918;2023-12-20T11:09:58;92644.22;;;10.60;47.54
40592;BME280;26301;42.832;23.918;2023-12-20T11:12:35;92646.00;;;10.54;46.54
40592;BME280;26301;42.832;23.918;2023-12-20T11:15:04;92628.44;;;10.56;42.56
40592;BME280;26301;42.832;23.918;2023-12-20T11:17:32;92633.19;;;10.69;45.08
40592;BME280;26301;42.832;23.918;2023-12-20T11:22:31;92625.41;;;11.07;43.11
40592;BME280;26301;42.832;23.918;2023-12-20T11:25:05;92579.84;;;10.90;42.67
40592;BME280;26301;42.832;23.918;2023-12-20T11:27:36;92587.94;;;11.04;40.32
40592;BME280;26301;42.832;23.918;2023-12-20T11:30:04;92600.94;;;11.19;38.41
40592;BME280;26301;42.832;23.918;2023-12-20T11:32:36;92596.53;;;11.25;41.29
40592;BME280;26301;42.832;23.918;2023-12-20T11:37:38;92594.97;;;11.14;44.57
40592;BME280;26301;42.832;23.918;2023-12-20T11:40:12;92567.69;;;10.91;43.52
40592;BME280;26301;42.832;23.918;2023-12-20T11:42:39;92558.84;;;10.76;44.25
40592;BME280;26301;42.832;23.918;2023-12-20T11:45:16;92584.25;;;10.90;43.66
40592;BME280;26301;42.832;23.918;2023-12-20T11:47:49;92586.34;;;10.98;42.09
40592;BME280;26301;42.832;23.918;2023-12-20T11:50:16;92566.13;;;10.85;42.31
40592;BME280;26301;42.832;23.918;2023-12-20T11:52:42;92566.84;;;10.75;44.68
40592;BME280;26301;42.832;23.918;2023-12-20T11:55:08;92531.81;;;10.47;44.93
40592;BME280;26301;42.832;23.918;2023-12-20T11:57:34;92560.50;;;10.56;44.90
40592;BME280;26301;42.832;23.918;2023-12-20T12:00:03;92534.03;;;10.33;45.93
40592;BME280;26301;42.832;23.918;2023-12-20T12:02:30;92559.72;;;10.50;47.37
40592;BME280;26301;42.832;23.918;2023-12-20T12:04:57;92534.72;;;10.23;47.84
40592;BME280;26301;42.832;23.918;2023-12-20T12:07:24;92531.31;;;10.18;47.15
40592;BME280;26301;42.832;23.918;2023-12-20T12:09:50;92555.06;;;10.20;48.59
40592;BME280;26301;42.832;23.918;2023-12-20T12:12:17;92538.97;;;10.07;49.97
40592;BME280;26301;42.832;23.918;2023-12-20T12:14:45;92536.09;;;9.99;50.50
40592;BME280;26301;42.832;23.918;2023-12-20T12:17:15;92534.91;;;9.84;52.10
40592;BME280;26301;42.832;23.918;2023-12-20T12:19:41;92514.88;;;9.65;51.95
40592;BME280;26301;42.832;23.918;2023-12-20T12:22:12;92517.66;;;9.58;50.51
40592;BME280;26301;42.832;23.918;2023-12-20T12:24:49;92521.25;;;9.57;51.47
40592;BME280;26301;42.832;23.918;2023-12-20T12:27:15;92530.28;;;9.59;54.15
40592;BME280;26301;42.832;23.918;2023-12-20T12:30:00;92519.25;;;9.37;51.52
40592;BME280;26301;42.832;23.918;2023-12-20T12:32:27;92534.78;;;9.42;52.21
40592;BME280;26301;42.832;23.918;2023-12-20T12:34:53;92532.34;;;9.57;52.19
40592;BME280;26301;42.832;23.918;2023-12-20T12:37:19;92523.72;;;9.47;51.86
40592;BME280;26301;42.832;23.918;2023-12-20T12:39:49;92527.22;;;9.62;50.46
40592;BME280;26301;42.832;23.918;2023-12-20T12:42:15;92519.81;;;9.71;51.02
40592;BME280;26301;42.832;23.918;2023-12-20T12:44:41;92482.19;;;9.43;50.66
40592;BME280;26301;42.832;23.918;2023-12-20T12:47:07;92485.06;;;9.47;52.02
40592;BME280;26301;42.832;23.918;2023-12-20T12:49:34;92496.28;;;9.62;50.00
40592;BME280;26301;42.832;23.918;2023-12-20T12:52:00;92519.97;;;9.87;50.39
40592;BME280;26301;42.832;23.918;2023-12-20T12:54:26;92520.00;;;9.92;48.20
40592;BME280;26301;42.832;23.918;2023-12-20T12:56:52;92493.25;;;9.71;50.93
40592;BME280;26301;42.832;23.918;2023-12-20T12:59:18;92502.88;;;9.75;50.97
40592;BME280;26301;42.832;23.918;2023-12-20T13:01:44;92496.63;;;9.71;49.83
40592;BME280;26301;42.832;23.918;2023-12-20T13:04:10;92535.44;;;9.87;48.16
40592;BME280;26301;42.832;23.918;2023-12-20T13:06:39;92533.53;;;10.04;48.06
40592;BME280;26301;42.832;23.918;2023-12-20T13:09:10;92498.06;;;9.89;47.71